Austin, Texas
Traffic Map
Current Weather Conditions
Austin, Texas
Clear
Clear
54°
Feels Like: 54°
Wind Chill: 54° Ceiling: Unl
Heat Index: 54° Visibility: 10mi
Dew Point: 51° Wind: 0mph
Humidity: 90% Direction: ° ()
Pressure: 29.74in Gusts: 0mph
Raw Report DataKATT 200551Z AUTO 00000KT 10SM CLR 12/11 A2974 RMK AO2 SLP069 T01220106 10189 20122 402170111 50000
Traffic Incident Summary
Active as of:
Severity:
Category:
InformationThere was an issue retrieving the traffic information for this location. Please try a different location or try again shortly.
Advertisements
Track Severe Weather on mobile